Wetterdaten: Woche 27.09.10 - 03.10.10 (KW39)
Datum Zeit Temp. Innen Temp. Aussen UV X Diff Temp. Feuchte Inne Feuchte Auss Sonnenschein Luftdruck Regen ab 0,1 Wind Sonnenschein T Regendauer Windben
27.09.2010 00:00 18,5 C 8,0 C 0,0 UV-I 0,0 C 56 % 91 % 0 % 1008,7 hPa 0,0 l/m 0,0 km/h (0 Bft) 0,00 h 0,03 h 0,0 km/h (0 Bft)
27.09.2010 01:00 18,3 C 7,3 C 0,0 UV-I 0,0 C 56 % 92 % 0 % 1008,8 hPa 0,0 l/m 0,0 km/h (0 Bft) 0,00 h 0,30 h 0,0 km/h (0 Bft)
27.09.2010 02:00 18,2 C 6,9 C 0,0 UV-I 0,0 C 55 % 92 % 0 % 1008,9 hPa 0,0 l/m 0,0 km/h (0 Bft) 0,00 h 0,23 h 0,0 km/h (0 Bft)
27.09.2010 03:00 18,1 C 6,6 C 0,0 UV-I 0,0 C 55 % 92 % 0 % 1009,0 hPa 0,0 l/m 0,0 km/h (0 Bft) 0,00 h 0,20 h 0,0 km/h (0 Bft)
27.09.2010 04:00 18,0 C 6,5 C 0,0 UV-I 0,0 C 55 % 93 % 0 % 1008,8 hPa 0,0 l/m 0,0 km/h (0 Bft) 0,00 h 0,13 h 0,0 km/h (0 Bft)
27.09.2010 05:00 18,0 C 6,2 C 0,0 UV-I 0,0 C 55 % 93 % 0 % 1008,9 hPa 0,0 l/m 0,0 km/h (0 Bft) 0,00 h 0,20 h 0,0 km/h (0 Bft)
27.09.2010 06:00 17,8 C 5,9 C 0,0 UV-I 0,0 C 54 % 94 % 0 % 1008,8 hPa 0,0 l/m 0,0 km/h (0 Bft) 0,00 h 0,20 h 0,0 km/h (0 Bft)
27.09.2010 07:00 17,7 C 6,3 C 0,0 UV-I 0,0 C 54 % 94 % 0 % 1008,7 hPa 0,0 l/m 0,0 km/h (0 Bft) 0,00 h 0,07 h 0,0 km/h (0 Bft)
27.09.2010 08:00 17,8 C 7,1 C 0,0 UV-I 0,0 C 55 % 95 % 0 % 1009,1 hPa 0,0 l/m 0,0 km/h (0 Bft) 0,00 h 0,10 h 0,1 km/h (0 Bft)
27.09.2010 09:00 17,9 C 8,0 C 0,0 UV-I 0,3 C 56 % 95 % 9 % 1009,6 hPa 0,0 l/m 0,0 km/h (0 Bft) 0,00 h 0,00 h 0,1 km/h (0 Bft)
27.09.2010 10:00 18,1 C 9,3 C 0,1 UV-I 1,1 C 56 % 95 % 32 % 1009,9 hPa 0,0 l/m 0,0 km/h (0 Bft) 0,00 h 0,00 h 0,0 km/h (0 Bft)
27.09.2010 11:00 18,3 C 10,7 C 0,4 UV-I 1,2 C 56 % 92 % 33 % 1010,0 hPa 0,0 l/m 0,5 km/h (0 Bft) 0,00 h 0,13 h 0,9 km/h (0 Bft)
27.09.2010 12:00 18,4 C 11,4 C 0,5 UV-I 0,1 C 56 % 89 % 4 % 1010,4 hPa 0,5 l/m 0,2 km/h (0 Bft) 0,00 h 1,00 h 0,4 km/h (0 Bft)
27.09.2010 13:00 18,5 C 11,6 C 0,7 UV-I 0,0 C 57 % 89 % 0 % 1010,5 hPa 0,4 l/m 1,2 km/h (1 Bft) 0,00 h 1,00 h 2,1 km/h (1 Bft)
27.09.2010 14:00 18,5 C 11,5 C 0,2 UV-I 0,0 C 58 % 90 % 0 % 1010,5 hPa 0,6 l/m 1,1 km/h (0 Bft) 0,00 h 1,00 h 1,5 km/h (1 Bft)
27.09.2010 15:00 18,5 C 11,5 C 0,5 UV-I 0,0 C 59 % 91 % 0 % 1010,4 hPa 0,5 l/m 1,4 km/h (1 Bft) 0,00 h 1,00 h 2,2 km/h (1 Bft)
27.09.2010 16:00 18,4 C 11,5 C 0,1 UV-I 0,0 C 60 % 92 % 0 % 1010,5 hPa 0,7 l/m 0,8 km/h (0 Bft) 0,00 h 1,00 h 1,0 km/h (0 Bft)
27.09.2010 17:00 18,3 C 11,2 C 0,0 UV-I 0,0 C 60 % 92 % 0 % 1010,7 hPa 0,9 l/m 0,4 km/h (0 Bft) 0,00 h 1,00 h 1,0 km/h (0 Bft)
27.09.2010 18:00 18,2 C 11,0 C 0,0 UV-I 0,0 C 60 % 93 % 0 % 1010,7 hPa 1,2 l/m 0,9 km/h (0 Bft) 0,00 h 1,00 h 1,1 km/h (1 Bft)
27.09.2010 19:00 18,1 C 10,7 C 0,1 UV-I 0,0 C 61 % 93 % 0 % 1011,0 hPa 0,7 l/m 0,4 km/h (0 Bft) 0,00 h 1,00 h 0,4 km/h (0 Bft)
27.09.2010 20:00 18,1 C 10,5 C 0,1 UV-I 0,0 C 61 % 93 % 0 % 1011,4 hPa 1,2 l/m 0,4 km/h (0 Bft) 0,00 h 1,00 h 1,0 km/h (0 Bft)
27.09.2010 21:00 18,0 C 10,4 C 0,1 UV-I 0,0 C 61 % 94 % 0 % 1011,3 hPa 0,3 l/m 0,9 km/h (0 Bft) 0,00 h 0,57 h 1,4 km/h (1 Bft)
27.09.2010 22:00 18,0 C 10,4 C 0,1 UV-I 0,0 C 61 % 94 % 0 % 1011,5 hPa 0,0 l/m 0,9 km/h (0 Bft) 0,00 h 0,03 h 1,5 km/h (1 Bft)
27.09.2010 23:00 18,0 C 10,5 C 0,1 UV-I 0,0 C 61 % 94 % 0 % 1011,6 hPa 0,0 l/m 0,5 km/h (0 Bft) 0,00 h 0,13 h 1,2 km/h (1 Bft)
28.09.2010 00:00 17,9 C 10,5 C 0,1 UV-I 0,0 C 61 % 94 % 0 % 1011,6 hPa 0,1 l/m 2,6 km/h (1 Bft) 0,00 h 0,10 h 3,4 km/h (1 Bft)
28.09.2010 01:00 17,6 C 10,4 C 0,1 UV-I 0,0 C 61 % 93 % 0 % 1011,6 hPa 0,0 l/m 2,5 km/h (1 Bft) 0,00 h 0,30 h 3,2 km/h (1 Bft)
28.09.2010 02:00 17,5 C 10,5 C 0,1 UV-I 0,0 C 62 % 94 % 0 % 1011,8 hPa 0,6 l/m 1,5 km/h (1 Bft) 0,00 h 1,00 h 2,3 km/h (1 Bft)
28.09.2010 03:00 17,4 C 10,4 C 0,1 UV-I 0,0 C 63 % 94 % 0 % 1011,9 hPa 0,2 l/m 1,5 km/h (1 Bft) 0,00 h 0,80 h 1,9 km/h (1 Bft)
28.09.2010 04:00 17,4 C 10,5 C 0,1 UV-I 0,0 C 63 % 95 % 0 % 1011,9 hPa 0,1 l/m 1,7 km/h (1 Bft) 0,00 h 0,80 h 2,0 km/h (1 Bft)
28.09.2010 05:00 17,4 C 10,5 C 0,1 UV-I 0,0 C 64 % 95 % 0 % 1012,0 hPa 0,1 l/m 1,2 km/h (1 Bft) 0,00 h 0,30 h 2,2 km/h (1 Bft)
28.09.2010 06:00 17,4 C 10,7 C 0,1 UV-I 0,0 C 64 % 95 % 0 % 1012,2 hPa 0,1 l/m 0,9 km/h (0 Bft) 0,00 h 0,23 h 1,4 km/h (1 Bft)
28.09.2010 07:00 17,3 C 10,7 C 0,1 UV-I 0,0 C 64 % 95 % 0 % 1012,5 hPa 0,1 l/m 0,5 km/h (0 Bft) 0,00 h 0,53 h 0,8 km/h (0 Bft)
28.09.2010 08:00 17,3 C 10,8 C 0,2 UV-I 0,0 C 64 % 96 % 0 % 1013,1 hPa 0,2 l/m 0,4 km/h (0 Bft) 0,00 h 0,57 h 0,4 km/h (0 Bft)
28.09.2010 09:00 17,4 C 10,9 C 0,4 UV-I 0,0 C 64 % 96 % 0 % 1013,5 hPa 0,0 l/m 0,5 km/h (0 Bft) 0,00 h 0,13 h 0,7 km/h (0 Bft)
28.09.2010 10:00 17,5 C 11,4 C 0,7 UV-I 0,1 C 65 % 96 % 3 % 1013,9 hPa 0,1 l/m 0,4 km/h (0 Bft) 0,00 h 0,07 h 0,7 km/h (0 Bft)
28.09.2010 11:00 17,7 C 11,9 C 1,0 UV-I 0,5 C 65 % 96 % 14 % 1014,6 hPa 0,0 l/m 0,3 km/h (0 Bft) 0,00 h 0,00 h 0,4 km/h (0 Bft)
28.09.2010 12:00 17,8 C 12,5 C 1,3 UV-I 1,0 C 66 % 96 % 27 % 1015,0 hPa 0,0 l/m 0,7 km/h (0 Bft) 0,00 h 0,00 h 1,1 km/h (0 Bft)
28.09.2010 13:00 18,0 C 13,0 C 1,3 UV-I 1,1 C 66 % 95 % 32 % 1015,6 hPa 0,0 l/m 0,7 km/h (0 Bft) 0,00 h 0,00 h 1,0 km/h (0 Bft)
28.09.2010 14:00 18,1 C 13,2 C 0,9 UV-I 0,7 C 67 % 95 % 20 % 1015,7 hPa 0,0 l/m 0,6 km/h (0 Bft) 0,00 h 0,00 h 0,9 km/h (0 Bft)
28.09.2010 15:00 18,1 C 13,6 C 0,9 UV-I 0,5 C 67 % 94 % 15 % 1015,8 hPa 0,0 l/m 0,7 km/h (0 Bft) 0,00 h 0,00 h 1,0 km/h (0 Bft)
28.09.2010 16:00 18,2 C 13,6 C 0,8 UV-I 0,4 C 67 % 94 % 10 % 1016,0 hPa 0,0 l/m 0,5 km/h (0 Bft) 0,00 h 0,00 h 0,7 km/h (0 Bft)
28.09.2010 17:00 18,1 C 13,4 C 0,4 UV-I 0,0 C 67 % 93 % 0 % 1016,2 hPa 0,0 l/m 0,3 km/h (0 Bft) 0,00 h 0,20 h 0,8 km/h (0 Bft)
28.09.2010 18:00 18,0 C 13,2 C 0,1 UV-I 0,0 C 68 % 94 % 0 % 1016,3 hPa 0,2 l/m 0,0 km/h (0 Bft) 0,00 h 0,80 h 0,1 km/h (0 Bft)
28.09.2010 19:00 18,0 C 13,1 C 0,1 UV-I 0,0 C 68 % 94 % 0 % 1016,8 hPa 0,9 l/m 0,2 km/h (0 Bft) 0,00 h 0,63 h 0,2 km/h (0 Bft)
28.09.2010 20:00 18,0 C 12,9 C 0,1 UV-I 0,0 C 69 % 94 % 0 % 1017,2 hPa 0,0 l/m 0,0 km/h (0 Bft) 0,00 h 0,00 h 0,0 km/h (0 Bft)
28.09.2010 21:00 17,9 C 12,7 C 0,1 UV-I 0,0 C 69 % 95 % 0 % 1017,5 hPa 0,0 l/m 0,0 km/h (0 Bft) 0,00 h 0,00 h 0,0 km/h (0 Bft)
28.09.2010 22:00 18,0 C 12,6 C 0,1 UV-I 0,0 C 68 % 95 % 0 % 1017,9 hPa 0,0 l/m 0,0 km/h (0 Bft) 0,00 h 0,00 h 0,0 km/h (0 Bft)
28.09.2010 23:00 18,1 C 12,6 C 0,1 UV-I 0,0 C 68 % 95 % 0 % 1017,8 hPa 0,0 l/m 0,1 km/h (0 Bft) 0,00 h 0,00 h 0,3 km/h (0 Bft)
29.09.2010 00:00 18,1 C 12,1 C 0,1 UV-I 0,0 C 67 % 95 % 0 % 1018,1 hPa 0,0 l/m 0,1 km/h (0 Bft) 0,00 h 0,00 h 0,0 km/h (0 Bft)
29.09.2010 01:00 18,0 C 11,5 C 0,1 UV-I 0,0 C 67 % 95 % 0 % 1018,1 hPa 0,0 l/m 0,1 km/h (0 Bft) 0,00 h 0,00 h 0,4 km/h (0 Bft)
29.09.2010 02:00 18,1 C 10,9 C 0,1 UV-I 0,0 C 66 % 95 % 0 % 1018,1 hPa 0,0 l/m 0,0 km/h (0 Bft) 0,00 h 0,03 h 0,0 km/h (0 Bft)
29.09.2010 03:00 18,0 C 10,3 C 0,1 UV-I 0,0 C 66 % 95 % 0 % 1018,2 hPa 0,0 l/m 0,2 km/h (0 Bft) 0,00 h 0,00 h 0,1 km/h (0 Bft)
29.09.2010 04:00 18,0 C 10,2 C 0,1 UV-I 0,0 C 66 % 95 % 0 % 1018,1 hPa 0,0 l/m 2,5 km/h (1 Bft) 0,00 h 0,03 h 3,6 km/h (1 Bft)
29.09.2010 05:00 18,0 C 9,9 C 0,1 UV-I 0,0 C 65 % 96 % 0 % 1018,1 hPa 0,0 l/m 1,5 km/h (1 Bft) 0,00 h 0,00 h 2,1 km/h (1 Bft)
29.09.2010 06:00 17,9 C 9,8 C 0,1 UV-I 0,0 C 65 % 96 % 0 % 1018,0 hPa 0,0 l/m 1,3 km/h (1 Bft) 0,00 h 0,00 h 1,0 km/h (0 Bft)
29.09.2010 07:00 17,9 C 9,8 C 0,1 UV-I 0,0 C 65 % 96 % 0 % 1018,3 hPa 0,1 l/m 0,6 km/h (0 Bft) 0,00 h 0,00 h 1,0 km/h (0 Bft)
29.09.2010 08:00 18,0 C 9,5 C 0,3 UV-I 0,0 C 65 % 96 % 0 % 1018,6 hPa 0,0 l/m 1,0 km/h (0 Bft) 0,00 h 0,00 h 1,5 km/h (1 Bft)
29.09.2010 09:00 18,0 C 9,8 C 1,4 UV-I 2,4 C 64 % 96 % 56 % 1018,9 hPa 0,0 l/m 0,8 km/h (0 Bft) 0,40 h 0,00 h 1,5 km/h (1 Bft)
29.09.2010 10:00 18,1 C 10,9 C 2,6 UV-I 6,1 C 64 % 95 % 100 % 1019,0 hPa 0,0 l/m 2,3 km/h (1 Bft) 1,00 h 0,00 h 3,8 km/h (1 Bft)
29.09.2010 11:00 18,2 C 12,7 C 3,1 UV-I 4,8 C 64 % 88 % 100 % 1019,5 hPa 0,0 l/m 3,1 km/h (1 Bft) 1,00 h 0,00 h 3,5 km/h (1 Bft)
29.09.2010 12:00 18,6 C 13,7 C 3,5 UV-I 4,2 C 62 % 77 % 100 % 1019,6 hPa 0,0 l/m 3,0 km/h (1 Bft) 1,00 h 0,00 h 4,3 km/h (1 Bft)
29.09.2010 13:00 19,3 C 14,7 C 4,4 UV-I 5,0 C 60 % 68 % 100 % 1019,8 hPa 0,0 l/m 3,1 km/h (1 Bft) 1,00 h 0,00 h 3,8 km/h (1 Bft)
29.09.2010 14:00 20,3 C 15,5 C 4,3 UV-I 4,7 C 57 % 66 % 100 % 1020,5 hPa 0,0 l/m 3,3 km/h (1 Bft) 1,00 h 0,00 h 4,1 km/h (1 Bft)
29.09.2010 15:00 21,9 C 16,3 C 4,8 UV-I 6,6 C 52 % 61 % 97 % 1020,9 hPa 0,0 l/m 3,0 km/h (1 Bft) 0,93 h 0,00 h 3,8 km/h (1 Bft)
29.09.2010 16:00 22,7 C 16,4 C 2,9 UV-I 4,2 C 50 % 60 % 84 % 1020,4 hPa 0,0 l/m 1,0 km/h (0 Bft) 0,73 h 0,00 h 2,1 km/h (1 Bft)
29.09.2010 17:00 22,5 C 16,4 C 1,8 UV-I 3,6 C 50 % 58 % 83 % 1019,4 hPa 0,0 l/m 1,4 km/h (1 Bft) 0,80 h 0,00 h 1,2 km/h (1 Bft)
29.09.2010 18:00 21,5 C 14,0 C 0,6 UV-I 0,0 C 51 % 69 % 0 % 1018,6 hPa 0,0 l/m 0,0 km/h (0 Bft) 0,00 h 0,20 h 0,0 km/h (0 Bft)
29.09.2010 19:00 20,2 C 11,7 C 0,2 UV-I 0,0 C 53 % 78 % 0 % 1018,3 hPa 0,0 l/m 0,1 km/h (0 Bft) 0,00 h 0,33 h 0,0 km/h (0 Bft)
29.09.2010 20:00 19,3 C 10,3 C 0,1 UV-I 0,0 C 56 % 82 % 0 % 1018,2 hPa 0,0 l/m 0,0 km/h (0 Bft) 0,00 h 0,17 h 0,0 km/h (0 Bft)
29.09.2010 21:00 18,8 C 9,1 C 0,1 UV-I 0,0 C 57 % 85 % 0 % 1017,9 hPa 0,0 l/m 0,0 km/h (0 Bft) 0,00 h 0,17 h 0,0 km/h (0 Bft)
29.09.2010 22:00 18,5 C 8,0 C 0,1 UV-I 0,0 C 57 % 88 % 0 % 1017,6 hPa 0,0 l/m 0,0 km/h (0 Bft) 0,00 h 0,33 h 0,0 km/h (0 Bft)
29.09.2010 23:00 18,3 C 7,4 C 0,1 UV-I 0,0 C 57 % 90 % 0 % 1017,5 hPa 0,0 l/m 0,0 km/h (0 Bft) 0,00 h 0,33 h 0,0 km/h (0 Bft)
30.09.2010 00:00 18,3 C 7,6 C 0,1 UV-I 0,0 C 58 % 91 % 0 % 1017,1 hPa 0,0 l/m 0,0 km/h (0 Bft) 0,00 h 0,53 h 0,0 km/h (0 Bft)
30.09.2010 01:00 18,1 C 7,3 C 0,1 UV-I 0,0 C 58 % 92 % 0 % 1016,9 hPa 0,0 l/m 0,1 km/h (0 Bft) 0,00 h 0,37 h 0,0 km/h (0 Bft)
30.09.2010 02:00 18,1 C 8,1 C 0,1 UV-I 0,0 C 58 % 93 % 0 % 1016,5 hPa 0,0 l/m 2,0 km/h (1 Bft) 0,00 h 0,27 h 4,5 km/h (1 Bft)
30.09.2010 03:00 18,0 C 8,4 C 0,1 UV-I 0,0 C 58 % 91 % 0 % 1016,1 hPa 0,0 l/m 3,2 km/h (1 Bft) 0,00 h 0,53 h 5,5 km/h (1 Bft)
30.09.2010 04:00 18,0 C 8,5 C 0,1 UV-I 0,0 C 57 % 90 % 0 % 1015,5 hPa 0,0 l/m 4,0 km/h (1 Bft) 0,00 h 0,30 h 6,1 km/h (2 Bft)
30.09.2010 05:00 18,0 C 8,7 C 0,1 UV-I 0,0 C 57 % 90 % 0 % 1014,9 hPa 0,0 l/m 3,2 km/h (1 Bft) 0,00 h 0,47 h 5,6 km/h (1 Bft)
30.09.2010 06:00 17,9 C 8,8 C 0,1 UV-I 0,0 C 57 % 91 % 0 % 1014,9 hPa 0,0 l/m 3,0 km/h (1 Bft) 0,00 h 0,50 h 5,6 km/h (1 Bft)
30.09.2010 07:00 17,9 C 9,2 C 0,1 UV-I 0,0 C 58 % 91 % 0 % 1014,7 hPa 0,0 l/m 3,8 km/h (1 Bft) 0,00 h 0,47 h 6,1 km/h (2 Bft)
30.09.2010 08:00 17,9 C 9,6 C 0,4 UV-I 0,0 C 58 % 91 % 0 % 1014,6 hPa 0,0 l/m 4,5 km/h (1 Bft) 0,00 h 0,40 h 8,4 km/h (2 Bft)
30.09.2010 09:00 18,0 C 10,3 C 0,7 UV-I 0,2 C 58 % 91 % 6 % 1014,5 hPa 0,0 l/m 4,9 km/h (1 Bft) 0,00 h 0,60 h 7,8 km/h (2 Bft)
30.09.2010 10:00 18,1 C 11,1 C 1,0 UV-I 0,4 C 59 % 89 % 11 % 1014,5 hPa 0,0 l/m 5,6 km/h (1 Bft) 0,00 h 0,90 h 7,6 km/h (2 Bft)
30.09.2010 11:00 18,2 C 11,7 C 0,9 UV-I 0,1 C 59 % 90 % 3 % 1014,4 hPa 0,0 l/m 5,6 km/h (1 Bft) 0,00 h 1,00 h 8,0 km/h (2 Bft)
30.09.2010 12:00 18,3 C 12,3 C 1,0 UV-I 0,4 C 60 % 90 % 11 % 1014,2 hPa 0,1 l/m 6,7 km/h (2 Bft) 0,00 h 1,00 h 10,6 km/h (2 Bft)
30.09.2010 13:00 18,3 C 12,4 C 1,1 UV-I 0,2 C 61 % 92 % 6 % 1014,0 hPa 0,0 l/m 4,3 km/h (1 Bft) 0,00 h 1,00 h 6,9 km/h (2 Bft)
30.09.2010 14:00 18,5 C 13,2 C 1,2 UV-I 0,6 C 61 % 92 % 17 % 1013,8 hPa 0,0 l/m 4,6 km/h (1 Bft) 0,00 h 1,00 h 6,7 km/h (2 Bft)
30.09.2010 15:00 18,5 C 13,1 C 0,7 UV-I 0,0 C 62 % 92 % 0 % 1013,5 hPa 0,7 l/m 3,5 km/h (1 Bft) 0,00 h 1,00 h 5,5 km/h (1 Bft)
30.09.2010 16:00 18,5 C 13,2 C 0,9 UV-I 0,0 C 63 % 93 % 0 % 1013,0 hPa 0,6 l/m 3,0 km/h (1 Bft) 0,00 h 1,00 h 4,4 km/h (1 Bft)
30.09.2010 17:00 18,6 C 13,3 C 0,5 UV-I 0,0 C 63 % 93 % 1 % 1012,8 hPa 0,6 l/m 3,8 km/h (1 Bft) 0,00 h 1,00 h 6,6 km/h (2 Bft)
30.09.2010 18:00 18,5 C 13,1 C 0,2 UV-I 0,0 C 64 % 94 % 0 % 1012,5 hPa 1,0 l/m 3,0 km/h (1 Bft) 0,00 h 1,00 h 5,0 km/h (1 Bft)
30.09.2010 19:00 18,4 C 13,0 C 0,1 UV-I 0,0 C 65 % 94 % 0 % 1012,6 hPa 0,5 l/m 1,9 km/h (1 Bft) 0,00 h 1,00 h 2,7 km/h (1 Bft)
30.09.2010 20:00 18,4 C 12,7 C 0,0 UV-I 0,0 C 65 % 94 % 0 % 1013,2 hPa 0,3 l/m 0,0 km/h (0 Bft) 0,00 h 1,00 h 0,0 km/h (0 Bft)
30.09.2010 21:00 18,4 C 12,7 C 0,0 UV-I 0,0 C 65 % 95 % 0 % 1013,1 hPa 0,2 l/m 0,0 km/h (0 Bft) 0,00 h 1,00 h 0,0 km/h (0 Bft)
30.09.2010 22:00 18,4 C 12,6 C 0,0 UV-I 0,0 C 65 % 95 % 0 % 1013,3 hPa 0,3 l/m 0,0 km/h (0 Bft) 0,00 h 1,00 h 0,0 km/h (0 Bft)
30.09.2010 23:00 18,4 C 12,4 C 0,0 UV-I 0,0 C 65 % 95 % 0 % 1013,2 hPa 0,1 l/m 0,0 km/h (0 Bft) 0,00 h 0,98 h 0,0 km/h (0 Bft)
01.10.2010 00:00 18,3 C 11,9 C 0,0 UV-I 0,0 C 65 % 94 % 0 % 1013,1 hPa 0,0 l/m 0,0 km/h (0 Bft) 0,00 h 1,00 h 0,0 km/h (0 Bft)
01.10.2010 01:00 18,3 C 11,3 C 0,0 UV-I 0,0 C 65 % 95 % 0 % 1013,0 hPa 0,0 l/m 0,0 km/h (0 Bft) 0,00 h 1,00 h 0,0 km/h (0 Bft)
01.10.2010 02:00 18,2 C 10,5 C 0,0 UV-I 0,0 C 65 % 95 % 0 % 1013,0 hPa 0,0 l/m 0,0 km/h (0 Bft) 0,00 h 1,00 h 0,0 km/h (0 Bft)
01.10.2010 03:00 18,1 C 9,9 C 0,0 UV-I 0,0 C 64 % 95 % 0 % 1013,1 hPa 0,0 l/m 0,0 km/h (0 Bft) 0,00 h 1,00 h 0,0 km/h (0 Bft)
01.10.2010 04:00 18,0 C 9,5 C 0,0 UV-I 0,0 C 64 % 95 % 0 % 1012,9 hPa 0,0 l/m 0,0 km/h (0 Bft) 0,00 h 1,00 h 0,0 km/h (0 Bft)
01.10.2010 05:00 17,9 C 8,7 C 0,0 UV-I 0,0 C 63 % 95 % 0 % 1012,7 hPa 0,0 l/m 0,0 km/h (0 Bft) 0,00 h 1,00 h 0,0 km/h (0 Bft)
01.10.2010 06:00 17,8 C 8,0 C 0,0 UV-I 0,0 C 62 % 95 % 0 % 1012,4 hPa 0,0 l/m 0,0 km/h (0 Bft) 0,00 h 1,00 h 0,0 km/h (0 Bft)
01.10.2010 07:00 17,8 C 8,2 C 0,0 UV-I 0,0 C 62 % 95 % 0 % 1012,4 hPa 0,1 l/m 0,0 km/h (0 Bft) 0,00 h 1,00 h 0,0 km/h (0 Bft)
01.10.2010 08:00 17,7 C 8,2 C 0,0 UV-I 0,4 C 61 % 95 % 10 % 1012,6 hPa 0,0 l/m 0,5 km/h (0 Bft) 0,03 h 1,00 h 1,0 km/h (0 Bft)
01.10.2010 09:00 17,7 C 9,4 C 0,5 UV-I 3,8 C 62 % 96 % 91 % 1012,9 hPa 0,0 l/m 1,9 km/h (1 Bft) 0,90 h 1,00 h 4,5 km/h (1 Bft)
01.10.2010 10:00 17,8 C 11,2 C 1,1 UV-I 6,3 C 62 % 96 % 100 % 1013,1 hPa 0,0 l/m 3,6 km/h (1 Bft) 1,00 h 1,00 h 5,6 km/h (1 Bft)
01.10.2010 11:00 18,0 C 13,5 C 1,0 UV-I 7,5 C 63 % 94 % 100 % 1013,1 hPa 0,0 l/m 2,9 km/h (1 Bft) 1,00 h 1,00 h 5,6 km/h (1 Bft)
01.10.2010 12:00 18,3 C 15,7 C 3,7 UV-I 6,8 C 62 % 83 % 100 % 1013,1 hPa 0,0 l/m 4,8 km/h (1 Bft) 1,00 h 1,00 h 7,8 km/h (2 Bft)
01.10.2010 13:00 19,5 C 17,3 C 5,6 UV-I 6,3 C 59 % 70 % 100 % 1013,4 hPa 0,0 l/m 5,7 km/h (1 Bft) 1,00 h 1,00 h 8,8 km/h (2 Bft)
01.10.2010 14:00 20,9 C 17,6 C 3,9 UV-I 3,7 C 55 % 67 % 83 % 1014,6 hPa 0,0 l/m 5,6 km/h (1 Bft) 0,70 h 0,97 h 7,6 km/h (2 Bft)
01.10.2010 15:00 21,4 C 17,9 C 2,4 UV-I 3,4 C 54 % 68 % 86 % 1013,4 hPa 0,0 l/m 6,0 km/h (2 Bft) 0,73 h 0,67 h 8,4 km/h (2 Bft)
01.10.2010 16:00 22,2 C 17,6 C 1,0 UV-I 1,8 C 52 % 68 % 51 % 1013,2 hPa 0,0 l/m 6,2 km/h (2 Bft) 0,20 h 0,00 h 8,2 km/h (2 Bft)
01.10.2010 17:00 21,7 C 16,6 C 0,3 UV-I 0,4 C 52 % 71 % 11 % 1012,0 hPa 0,0 l/m 7,9 km/h (2 Bft) 0,00 h 0,00 h 11,4 km/h (2 Bft)
01.10.2010 18:00 20,8 C 15,5 C 0,0 UV-I 0,1 C 53 % 72 % 3 % 1011,4 hPa 0,0 l/m 4,6 km/h (1 Bft) 0,00 h 0,27 h 8,2 km/h (2 Bft)
01.10.2010 19:00 19,9 C 13,9 C 0,0 UV-I 0,0 C 54 % 77 % 0 % 1011,1 hPa 0,0 l/m 2,7 km/h (1 Bft) 0,00 h 0,07 h 4,3 km/h (1 Bft)
01.10.2010 20:00 19,3 C 13,0 C 0,0 UV-I 0,0 C 56 % 82 % 0 % 1010,8 hPa 0,0 l/m 6,4 km/h (2 Bft) 0,00 h 0,17 h 9,5 km/h (2 Bft)
01.10.2010 21:00 19,1 C 12,7 C 0,1 UV-I 0,0 C 57 % 83 % 0 % 1010,5 hPa 0,0 l/m 7,2 km/h (2 Bft) 0,00 h 0,17 h 10,2 km/h (2 Bft)
01.10.2010 22:00 18,9 C 12,7 C 0,1 UV-I 0,0 C 58 % 84 % 0 % 1010,2 hPa 0,0 l/m 8,9 km/h (2 Bft) 0,00 h 0,13 h 11,9 km/h (2 Bft)
01.10.2010 23:00 18,8 C 12,8 C 0,1 UV-I 0,0 C 59 % 85 % 0 % 1009,9 hPa 0,0 l/m 8,0 km/h (2 Bft) 0,00 h 0,48 h 10,8 km/h (2 Bft)
02.10.2010 00:00 18,7 C 12,6 C 0,1 UV-I 0,0 C 59 % 86 % 0 % 1009,8 hPa 0,1 l/m 8,2 km/h (2 Bft) 0,00 h 0,77 h 12,4 km/h (3 Bft)
02.10.2010 01:00 18,6 C 12,2 C 0,1 UV-I 0,0 C 60 % 89 % 0 % 1009,3 hPa 0,3 l/m 7,1 km/h (2 Bft) 0,00 h 1,00 h 10,0 km/h (2 Bft)
02.10.2010 02:00 18,5 C 11,9 C 0,1 UV-I 0,0 C 61 % 91 % 0 % 1008,7 hPa 2,9 l/m 7,7 km/h (2 Bft) 0,00 h 1,00 h 11,5 km/h (2 Bft)
02.10.2010 03:00 18,4 C 11,7 C 0,1 UV-I 0,0 C 62 % 93 % 0 % 1008,0 hPa 2,4 l/m 10,1 km/h (2 Bft) 0,00 h 1,00 h 15,2 km/h (3 Bft)
02.10.2010 04:00 18,3 C 11,6 C 0,1 UV-I 0,0 C 63 % 94 % 0 % 1007,4 hPa 1,7 l/m 11,6 km/h (2 Bft) 0,00 h 1,00 h 16,7 km/h (3 Bft)
02.10.2010 05:00 18,0 C 11,7 C 0,1 UV-I 0,0 C 64 % 94 % 0 % 1007,1 hPa 0,7 l/m 10,0 km/h (2 Bft) 0,00 h 1,00 h 14,1 km/h (3 Bft)
02.10.2010 06:00 17,9 C 11,8 C 0,1 UV-I 0,0 C 65 % 94 % 0 % 1007,0 hPa 0,8 l/m 8,6 km/h (2 Bft) 0,00 h 1,00 h 12,5 km/h (3 Bft)
02.10.2010 07:00 17,8 C 11,9 C 0,1 UV-I 0,0 C 65 % 94 % 0 % 1007,0 hPa 0,2 l/m 8,3 km/h (2 Bft) 0,00 h 0,40 h 9,7 km/h (2 Bft)
02.10.2010 08:00 17,8 C 12,0 C 0,2 UV-I 0,0 C 66 % 95 % 0 % 1007,5 hPa 0,1 l/m 8,6 km/h (2 Bft) 0,00 h 0,27 h 10,9 km/h (2 Bft)
02.10.2010 09:00 17,8 C 12,3 C 0,5 UV-I 0,0 C 67 % 95 % 0 % 1007,9 hPa 0,0 l/m 7,4 km/h (2 Bft) 0,00 h 0,00 h 7,8 km/h (2 Bft)
02.10.2010 10:00 17,8 C 12,8 C 0,7 UV-I 0,0 C 68 % 95 % 1 % 1008,7 hPa 0,0 l/m 7,1 km/h (2 Bft) 0,00 h 0,00 h 8,7 km/h (2 Bft)
02.10.2010 11:00 18,1 C 13,6 C 1,4 UV-I 0,5 C 68 % 95 % 13 % 1009,1 hPa 0,0 l/m 5,5 km/h (1 Bft) 0,00 h 0,00 h 6,9 km/h (2 Bft)
02.10.2010 12:00 18,4 C 15,0 C 1,9 UV-I 1,1 C 69 % 94 % 32 % 1009,5 hPa 0,0 l/m 6,1 km/h (2 Bft) 0,00 h 0,17 h 6,8 km/h (2 Bft)
02.10.2010 13:00 18,7 C 16,3 C 2,4 UV-I 1,0 C 69 % 93 % 28 % 1009,6 hPa 0,2 l/m 4,0 km/h (1 Bft) 0,00 h 0,27 h 5,5 km/h (1 Bft)
02.10.2010 14:00 18,9 C 17,1 C 1,7 UV-I 0,7 C 68 % 89 % 20 % 1009,4 hPa 0,0 l/m 4,6 km/h (1 Bft) 0,00 h 0,00 h 5,2 km/h (1 Bft)
02.10.2010 15:00 19,0 C 17,5 C 1,3 UV-I 0,4 C 68 % 87 % 11 % 1009,4 hPa 0,0 l/m 4,3 km/h (1 Bft) 0,00 h 0,27 h 4,9 km/h (1 Bft)
02.10.2010 16:00 19,1 C 17,3 C 1,0 UV-I 0,0 C 69 % 88 % 0 % 1009,5 hPa 0,0 l/m 4,8 km/h (1 Bft) 0,00 h 0,07 h 5,2 km/h (1 Bft)
02.10.2010 17:00 19,2 C 17,2 C 0,8 UV-I 0,2 C 69 % 89 % 4 % 1009,3 hPa 0,0 l/m 1,2 km/h (1 Bft) 0,00 h 0,00 h 1,7 km/h (1 Bft)
02.10.2010 18:00 19,1 C 17,2 C 0,3 UV-I 0,0 C 69 % 88 % 0 % 1009,3 hPa 0,0 l/m 5,0 km/h (1 Bft) 0,00 h 0,03 h 5,8 km/h (2 Bft)
02.10.2010 19:00 19,0 C 16,8 C 0,1 UV-I 0,0 C 70 % 88 % 0 % 1009,3 hPa 0,0 l/m 5,9 km/h (2 Bft) 0,00 h 0,07 h 6,4 km/h (2 Bft)
02.10.2010 20:00 19,0 C 16,3 C 0,1 UV-I 0,0 C 70 % 89 % 0 % 1009,4 hPa 0,0 l/m 7,4 km/h (2 Bft) 0,00 h 0,20 h 8,3 km/h (2 Bft)
02.10.2010 21:00 19,0 C 16,0 C 0,1 UV-I 0,0 C 70 % 90 % 0 % 1009,3 hPa 0,0 l/m 8,1 km/h (2 Bft) 0,00 h 0,00 h 9,2 km/h (2 Bft)
02.10.2010 22:00 18,9 C 15,7 C 0,1 UV-I 0,0 C 71 % 91 % 0 % 1009,0 hPa 0,2 l/m 8,7 km/h (2 Bft) 0,00 h 0,60 h 9,7 km/h (2 Bft)
02.10.2010 23:00 18,8 C 15,5 C 0,1 UV-I 0,0 C 71 % 92 % 0 % 1008,9 hPa 0,0 l/m 9,8 km/h (2 Bft) 0,00 h 0,00 h 9,3 km/h (2 Bft)
03.10.2010 00:00 18,7 C 15,6 C 0,1 UV-I 0,0 C 72 % 92 % 0 % 1008,7 hPa 0,0 l/m 9,0 km/h (2 Bft) 0,00 h 0,00 h 10,8 km/h (2 Bft)
03.10.2010 01:00 18,6 C 15,6 C 0,1 UV-I 0,0 C 72 % 92 % 0 % 1008,1 hPa 0,0 l/m 9,6 km/h (2 Bft) 0,00 h 0,20 h 12,2 km/h (2 Bft)
03.10.2010 02:00 18,6 C 15,6 C 0,1 UV-I 0,0 C 72 % 92 % 0 % 1007,6 hPa 0,1 l/m 9,8 km/h (2 Bft) 0,00 h 0,20 h 10,7 km/h (2 Bft)
03.10.2010 03:00 18,6 C 15,5 C 0,1 UV-I 0,0 C 72 % 92 % 0 % 1006,8 hPa 0,0 l/m 12,0 km/h (2 Bft) 0,00 h 0,00 h 13,3 km/h (3 Bft)
03.10.2010 04:00 18,5 C 15,5 C 0,1 UV-I 0,0 C 72 % 90 % 0 % 1006,1 hPa 0,0 l/m 14,1 km/h (3 Bft) 0,00 h 0,00 h 15,4 km/h (3 Bft)
03.10.2010 05:00 18,5 C 15,5 C 0,1 UV-I 0,0 C 71 % 88 % 0 % 1005,8 hPa 0,0 l/m 14,9 km/h (3 Bft) 0,00 h 0,00 h 17,3 km/h (3 Bft)
03.10.2010 06:00 18,4 C 15,3 C 0,1 UV-I 0,0 C 71 % 88 % 0 % 1005,7 hPa 0,0 l/m 13,6 km/h (3 Bft) 0,00 h 0,00 h 15,8 km/h (3 Bft)
03.10.2010 07:00 18,4 C 15,1 C 0,1 UV-I 0,0 C 70 % 88 % 0 % 1005,7 hPa 0,0 l/m 10,7 km/h (2 Bft) 0,00 h 0,00 h 11,7 km/h (2 Bft)
03.10.2010 08:00 18,3 C 15,0 C 0,3 UV-I 0,0 C 70 % 89 % 0 % 1005,9 hPa 0,0 l/m 9,3 km/h (2 Bft) 0,00 h 0,00 h 8,4 km/h (2 Bft)
03.10.2010 09:00 18,4 C 15,4 C 0,8 UV-I 0,0 C 70 % 88 % 1 % 1006,0 hPa 0,0 l/m 9,7 km/h (2 Bft) 0,00 h 0,00 h 9,9 km/h (2 Bft)
03.10.2010 10:00 18,6 C 16,2 C 2,0 UV-I 1,0 C 71 % 87 % 28 % 1006,0 hPa 0,0 l/m 10,6 km/h (2 Bft) 0,10 h 0,00 h 12,9 km/h (3 Bft)
03.10.2010 11:00 19,0 C 18,2 C 3,0 UV-I 4,8 C 71 % 81 % 97 % 1005,9 hPa 0,0 l/m 13,2 km/h (3 Bft) 0,93 h 0,00 h 16,8 km/h (3 Bft)
03.10.2010 12:00 19,5 C 19,8 C 4,5 UV-I 4,2 C 70 % 77 % 94 % 1005,4 hPa 0,0 l/m 12,5 km/h (3 Bft) 0,83 h 0,00 h 14,5 km/h (3 Bft)
03.10.2010 13:00 20,7 C 22,2 C 6,4 UV-I 4,7 C 68 % 70 % 100 % 1005,4 hPa 0,0 l/m 14,4 km/h (3 Bft) 1,00 h 0,00 h 16,1 km/h (3 Bft)
03.10.2010 14:00 22,3 C 23,3 C 6,1 UV-I 4,1 C 64 % 66 % 100 % 1007,0 hPa 0,0 l/m 14,1 km/h (3 Bft) 1,00 h 0,00 h 15,7 km/h (3 Bft)
03.10.2010 15:00 23,9 C 24,5 C 4,8 UV-I 3,9 C 59 % 59 % 100 % 1006,2 hPa 0,0 l/m 13,9 km/h (3 Bft) 1,00 h 0,00 h 14,4 km/h (3 Bft)
03.10.2010 16:00 25,0 C 24,5 C 2,9 UV-I 2,6 C 55 % 58 % 73 % 1005,9 hPa 0,0 l/m 12,2 km/h (3 Bft) 0,53 h 0,17 h 12,1 km/h (2 Bft)
03.10.2010 17:00 24,4 C 23,6 C 1,5 UV-I 1,1 C 56 % 59 % 31 % 1004,1 hPa 0,0 l/m 10,3 km/h (2 Bft) 0,10 h 0,03 h 11,5 km/h (2 Bft)
03.10.2010 18:00 23,5 C 22,0 C 0,6 UV-I 0,3 C 58 % 67 % 8 % 1003,4 hPa 0,0 l/m 7,1 km/h (2 Bft) 0,13 h 0,03 h 8,5 km/h (2 Bft)
03.10.2010 19:00 22,7 C 20,1 C 0,1 UV-I 0,0 C 60 % 74 % 0 % 1003,3 hPa 0,0 l/m 6,1 km/h (2 Bft) 0,00 h 0,13 h 6,7 km/h (2 Bft)
03.10.2010 20:00 22,0 C 19,1 C 0,1 UV-I 0,0 C 62 % 76 % 0 % 1003,0 hPa 0,0 l/m 4,1 km/h (1 Bft) 0,00 h 0,07 h 5,0 km/h (1 Bft)
03.10.2010 21:00 21,5 C 18,2 C 0,1 UV-I 0,0 C 63 % 79 % 0 % 1003,1 hPa 0,0 l/m 6,0 km/h (2 Bft) 0,00 h 0,10 h 6,7 km/h (2 Bft)
03.10.2010 22:00 21,1 C 17,6 C 0,1 UV-I 0,0 C 64 % 82 % 0 % 1002,8 hPa 0,0 l/m 6,7 km/h (2 Bft) 0,00 h 0,10 h 7,8 km/h (2 Bft)
03.10.2010 23:00 20,9 C 17,2 C 0,1 UV-I 0,0 C 66 % 84 % 0 % 1002,6 hPa 0,0 l/m 6,8 km/h (2 Bft) 0,00 h 0,17 h 7,2 km/h (2 Bft)
Min-Datum _ 28.09.10 27.09.10 27.09.10 27.09.10 29.09.10 29.09.10 27.09.10 03.10.10 - 27.09.10 - - 27.09.10
_ Min-Zeit 07:24 05:58 00:00 00:00 16:30 17:24 00:00 23:26 - 00:00 - - 00:00
Minimum _ 17,2 C 5,7 C 0,0 UV-I 0,0 C 49 % 56 % 0 % 1002,4 hPa - 0,0 km/h (0 Bft) - - 0,0 km/h (0 Bft)
Max-Datum _ 03.10.10 03.10.10 01.10.10 01.10.10 03.10.10 28.09.10 29.09.10 29.09.10 02.10.10 03.10.10 29.09.10 27.09.10 03.10.10
_ Max-Zeit 16:30 16:04 13:54 11:46 02:20 08:24 09:40 15:46 02:12 05:30 09:36 00:30 14:06
Maximum _ 25,2 C 24,9 C 6,7 UV-I 8,0 C 73 % 96 % 100 % 1021,6 hPa 2,9 l/m 17,3 km/h
O-NO (3 Bft)
0,03 h 0,03 h 40,6 km/h
N-NO (6 Bft)
Durchschnitt _ 18,7 C 12,7 C 0,7 UV-I 0,7 C 62 % 89 % 15 % 1012,0 hPa #23,4 l/m 3,8 km/h (1 Bft) #20:04 h #65:04 h 4,8 km/h (1 Bft)
© 2012 W. Hausmann